createdAt,value
2024-04-24T00:00:40.906Z,26.63
2024-04-24T00:03:10.255Z,26.20
2024-04-24T00:05:37.952Z,26.75
2024-04-24T00:08:05.946Z,25.42
2024-04-24T00:10:34.290Z,27.02
2024-04-24T00:13:01.562Z,26.13
2024-04-24T00:15:28.923Z,27.15
2024-04-24T00:17:56.316Z,26.33
2024-04-24T00:20:23.693Z,25.67
2024-04-24T00:22:51.330Z,23.88
2024-04-24T00:25:18.681Z,25.63
2024-04-24T00:27:45.982Z,24.30
2024-04-24T00:30:14.204Z,24.25
2024-04-24T00:32:42.147Z,24.73
2024-04-24T00:35:09.760Z,22.42
2024-04-24T00:37:40.073Z,23.70
2024-04-24T00:40:09.156Z,24.55
2024-04-24T00:42:36.615Z,24.13
2024-04-24T00:45:04.230Z,24.48
2024-04-24T00:47:32.599Z,24.23
2024-04-24T00:50:02.249Z,21.73
2024-04-24T00:52:30.561Z,24.23
2024-04-24T00:54:57.963Z,23.42
2024-04-24T00:57:25.537Z,22.65
2024-04-24T00:59:52.829Z,25.38
2024-04-24T01:02:20.430Z,24.10
2024-04-24T01:04:47.851Z,22.13
2024-04-24T01:07:15.622Z,21.40
2024-04-24T01:09:42.928Z,22.70
2024-04-24T01:12:10.322Z,23.00
2024-04-24T01:14:38.356Z,23.63
2024-04-24T01:17:09.552Z,24.27
2024-04-24T01:19:39.949Z,22.05
2024-04-24T01:22:24.049Z,23.35
2024-04-24T01:27:18.733Z,20.75
2024-04-24T01:29:46.022Z,21.60
2024-04-24T01:32:13.435Z,22.60
2024-04-24T01:34:40.750Z,23.10
2024-04-24T01:37:08.023Z,23.02
2024-04-24T01:39:35.350Z,23.75
2024-04-24T01:42:02.685Z,23.65
2024-04-24T01:44:29.982Z,23.45
2024-04-24T01:46:57.262Z,22.52
2024-04-24T01:49:24.607Z,22.45
2024-04-24T01:51:51.918Z,24.63
2024-04-24T01:54:19.165Z,23.70
2024-04-24T01:56:46.447Z,22.33
2024-04-24T01:59:13.736Z,23.02
2024-04-24T02:01:41.014Z,24.00
2024-04-24T02:04:08.293Z,22.10
2024-04-24T02:06:35.941Z,23.13
2024-04-24T02:09:03.213Z,25.55
2024-04-24T02:11:32.938Z,23.23
2024-04-24T02:14:02.632Z,23.70
2024-04-24T02:16:29.918Z,24.45
2024-04-24T02:18:57.487Z,24.42
2024-04-24T02:21:24.863Z,24.73
2024-04-24T02:23:52.355Z,22.98
2024-04-24T02:26:20.119Z,23.58
2024-04-24T02:28:47.583Z,22.90
2024-04-24T02:31:14.852Z,25.42
2024-04-24T02:33:42.231Z,23.58
2024-04-24T02:36:09.503Z,24.73
2024-04-24T02:38:36.779Z,23.65
2024-04-24T02:41:04.128Z,23.60
2024-04-24T02:43:31.424Z,24.88
2024-04-24T02:45:58.989Z,24.83
2024-04-24T02:48:26.400Z,22.90
2024-04-24T02:50:53.722Z,25.02
2024-04-24T02:53:21.205Z,23.45
2024-04-24T02:55:48.573Z,23.65
2024-04-24T02:58:15.870Z,26.42
2024-04-24T03:00:43.153Z,24.52
2024-04-24T03:03:10.626Z,24.10
2024-04-24T03:05:38.130Z,24.48
2024-04-24T03:08:05.673Z,22.85
2024-04-24T03:10:32.953Z,22.20
2024-04-24T03:13:00.338Z,27.05
2024-04-24T03:15:27.650Z,22.75
2024-04-24T03:17:55.057Z,25.27
2024-04-24T03:20:22.378Z,25.52
2024-04-24T03:22:49.748Z,24.65
2024-04-24T03:25:17.027Z,24.13
2024-04-24T03:27:44.304Z,24.80
2024-04-24T03:30:11.652Z,23.98
2024-04-24T03:32:39.680Z,22.95
2024-04-24T03:35:07.127Z,21.63
2024-04-24T03:37:34.478Z,23.23
2024-04-24T03:40:01.849Z,21.95
2024-04-24T03:42:29.178Z,24.58
2024-04-24T03:44:56.458Z,23.05
2024-04-24T03:47:23.821Z,22.98
2024-04-24T03:49:51.334Z,22.08
2024-04-24T03:52:19.144Z,23.98
2024-04-24T03:54:46.474Z,23.20
2024-04-24T03:57:13.950Z,22.90
2024-04-24T03:59:41.215Z,24.15
2024-04-24T04:02:08.556Z,23.73
2024-04-24T04:04:35.869Z,23.15
2024-04-24T04:07:03.142Z,23.48
2024-04-24T04:09:30.405Z,23.23
2024-04-24T04:11:57.725Z,22.88
2024-04-24T04:14:25.076Z,23.60
2024-04-24T04:16:52.382Z,23.02
2024-04-24T04:19:19.647Z,22.50
2024-04-24T04:21:47.265Z,21.92
2024-04-24T04:24:14.539Z,24.00
2024-04-24T04:26:41.845Z,22.80
2024-04-24T04:29:09.186Z,22.70
2024-04-24T04:31:36.492Z,23.27
2024-04-24T04:34:03.765Z,23.42
2024-04-24T04:36:31.093Z,20.65
2024-04-24T04:38:58.426Z,22.70
2024-04-24T04:41:25.759Z,21.95
2024-04-24T04:43:55.182Z,22.70
2024-04-24T04:46:22.494Z,21.85
2024-04-24T04:48:53.017Z,21.08
2024-04-24T04:51:20.515Z,22.52
2024-04-24T04:53:47.789Z,22.27
2024-04-24T04:56:15.141Z,21.50
2024-04-24T04:58:42.468Z,22.05
2024-04-24T05:01:10.126Z,20.25
2024-04-24T05:03:37.550Z,21.35
2024-04-24T05:06:05.235Z,21.45
2024-04-24T05:08:32.542Z,22.50
2024-04-24T05:11:00.076Z,21.35
2024-04-24T05:13:27.424Z,22.63
2024-04-24T05:15:54.684Z,20.33
2024-04-24T05:18:25.343Z,21.83
2024-04-24T05:20:53.213Z,21.42
2024-04-24T05:23:20.630Z,21.25
2024-04-24T05:25:53.423Z,20.70
2024-04-24T05:28:39.769Z,22.77
2024-04-24T05:31:07.060Z,22.10
2024-04-24T05:33:34.551Z,22.10
2024-04-24T05:36:03.254Z,22.63
2024-04-24T05:38:30.566Z,20.25
2024-04-24T05:40:57.999Z,21.05
2024-04-24T05:43:25.344Z,21.25
2024-04-24T05:45:52.670Z,20.23
2024-04-24T05:48:20.045Z,20.63
2024-04-24T05:50:47.346Z,18.83
2024-04-24T05:53:14.633Z,20.45
2024-04-24T05:55:41.921Z,20.60
2024-04-24T05:58:09.176Z,20.23
2024-04-24T06:00:36.518Z,19.60
2024-04-24T06:03:04.017Z,20.23
2024-04-24T06:05:31.433Z,20.58
2024-04-24T06:07:58.918Z,20.90
2024-04-24T06:10:26.300Z,18.70
2024-04-24T06:12:53.563Z,20.88
2024-04-24T06:15:20.859Z,19.67
2024-04-24T06:17:48.275Z,18.80
2024-04-24T06:20:19.348Z,19.73
2024-04-24T06:22:46.722Z,19.60
2024-04-24T06:25:14.309Z,18.10
2024-04-24T06:27:41.671Z,18.38
2024-04-24T06:30:09.082Z,18.23
2024-04-24T06:32:36.555Z,20.13
2024-04-24T06:35:04.420Z,19.40
2024-04-24T06:37:31.791Z,19.33
2024-04-24T06:39:59.056Z,18.02
2024-04-24T06:42:26.451Z,19.35
2024-04-24T06:44:53.791Z,18.90
2024-04-24T06:47:21.179Z,19.13
2024-04-24T06:49:48.506Z,18.65
2024-04-24T06:52:15.861Z,15.88
2024-04-24T06:54:43.127Z,17.30
2024-04-24T06:57:10.455Z,18.00
2024-04-24T06:59:37.714Z,17.92
2024-04-24T07:02:05.178Z,18.33
2024-04-24T07:04:32.478Z,17.83
2024-04-24T07:06:59.791Z,18.13
2024-04-24T07:09:27.028Z,15.75
2024-04-24T07:11:54.451Z,16.38
2024-04-24T07:14:21.853Z,15.02
2024-04-24T07:16:49.218Z,16.90
2024-04-24T07:19:16.501Z,16.77
2024-04-24T07:21:43.791Z,16.23
2024-04-24T07:24:11.042Z,15.45
2024-04-24T07:26:39.372Z,15.80
2024-04-24T07:29:06.702Z,16.70
2024-04-24T07:31:33.966Z,10.98
2024-04-24T07:34:01.921Z,13.65
2024-04-24T07:36:29.244Z,14.55
2024-04-24T07:38:56.513Z,15.88
2024-04-24T07:41:23.854Z,14.27
2024-04-24T07:43:51.466Z,13.73
2024-04-24T07:46:18.737Z,14.40
2024-04-24T07:48:46.156Z,12.98
2024-04-24T07:51:13.539Z,14.43
2024-04-24T07:53:40.896Z,14.02
2024-04-24T07:56:08.284Z,12.48
2024-04-24T07:58:35.617Z,12.50
2024-04-24T08:01:02.958Z,13.52
2024-04-24T08:03:31.259Z,13.77
2024-04-24T08:05:58.599Z,12.95
2024-04-24T08:08:26.272Z,13.05
2024-04-24T08:10:53.753Z,12.38
2024-04-24T08:13:21.262Z,12.35
2024-04-24T08:15:48.533Z,12.65
2024-04-24T08:18:15.922Z,12.05
2024-04-24T08:20:43.243Z,11.63
2024-04-24T08:23:13.112Z,11.52
2024-04-24T08:25:41.680Z,10.98
2024-04-24T08:28:12.478Z,11.82
2024-04-24T08:30:40.090Z,11.57
2024-04-24T08:33:07.486Z,10.50
2024-04-24T08:35:34.864Z,10.60
2024-04-24T08:38:02.259Z,10.90
2024-04-24T08:40:30.257Z,10.30
2024-04-24T08:42:57.630Z,10.10
2024-04-24T08:45:25.315Z,9.45
2024-04-24T08:47:52.715Z,8.80
2024-04-24T08:50:20.129Z,8.63
2024-04-24T08:52:47.719Z,8.75
2024-04-24T08:55:15.126Z,8.38
2024-04-24T08:57:42.927Z,7.53
2024-04-24T09:00:10.624Z,9.13
2024-04-24T09:02:44.435Z,8.25
2024-04-24T09:07:41.660Z,9.55
2024-04-24T09:10:10.300Z,8.95
2024-04-24T09:12:37.717Z,10.13
2024-04-24T09:15:05.202Z,9.27
2024-04-24T09:17:32.971Z,9.80
2024-04-24T09:20:00.451Z,9.32
2024-04-24T09:22:28.121Z,9.20
2024-04-24T09:24:57.755Z,9.40
2024-04-24T09:27:26.338Z,8.45
2024-04-24T09:29:53.609Z,9.57
2024-04-24T09:32:20.987Z,11.18
2024-04-24T09:34:49.222Z,9.30
2024-04-24T09:37:18.469Z,9.68
2024-04-24T09:39:47.236Z,9.50
2024-04-24T09:42:15.546Z,9.23
2024-04-24T09:44:46.595Z,8.82
2024-04-24T09:47:14.089Z,9.77
2024-04-24T09:49:45.456Z,8.80
2024-04-24T09:52:18.332Z,8.55
2024-04-24T09:54:46.525Z,7.20
2024-04-24T09:57:14.142Z,7.93
2024-04-24T09:59:49.743Z,7.93
2024-04-24T10:02:20.781Z,7.45
2024-04-24T10:04:51.823Z,6.80
2024-04-24T10:07:22.711Z,6.95
2024-04-24T10:09:52.290Z,7.90
2024-04-24T10:12:25.334Z,6.28
2024-04-24T10:14:57.646Z,7.50
2024-04-24T10:17:25.264Z,6.47
2024-04-24T10:19:53.638Z,7.35
2024-04-24T10:22:21.557Z,6.93
2024-04-24T10:24:49.616Z,7.18
2024-04-24T10:27:17.283Z,7.55
2024-04-24T10:29:44.943Z,7.20
2024-04-24T10:32:13.802Z,7.22
2024-04-24T10:34:41.439Z,7.22
2024-04-24T10:37:08.772Z,6.82
2024-04-24T10:39:43.401Z,6.93
2024-04-24T10:42:11.842Z,7.32
2024-04-24T10:44:39.423Z,6.40
2024-04-24T10:47:07.842Z,7.43
2024-04-24T10:49:35.214Z,6.63
2024-04-24T10:52:02.495Z,5.70
2024-04-24T10:54:30.969Z,6.40
2024-04-24T10:56:58.568Z,5.22
2024-04-24T10:59:35.497Z,5.78
2024-04-24T11:02:22.201Z,6.63
2024-04-24T11:04:49.651Z,6.28
2024-04-24T11:07:25.118Z,5.43
2024-04-24T11:10:00.317Z,5.63
2024-04-24T11:12:27.871Z,5.88
2024-04-24T11:14:55.279Z,5.35
2024-04-24T11:17:26.384Z,5.97
2024-04-24T11:19:53.739Z,4.75
2024-04-24T11:22:30.755Z,4.70
2024-04-24T11:24:58.035Z,5.50
2024-04-24T11:27:28.261Z,4.88
2024-04-24T11:29:55.537Z,3.97
2024-04-24T11:32:24.280Z,4.03
2024-04-24T11:34:52.789Z,4.63
2024-04-24T11:37:20.171Z,4.85
2024-04-24T11:39:47.598Z,4.68
2024-04-24T11:42:14.912Z,4.70
2024-04-24T11:44:42.284Z,4.07
2024-04-24T11:47:09.668Z,5.18
2024-04-24T11:49:37.845Z,5.50
2024-04-24T11:52:08.226Z,4.78
2024-04-24T11:54:35.495Z,5.55
2024-04-24T11:57:02.767Z,4.57
2024-04-24T11:59:30.983Z,4.75
2024-04-24T12:01:58.515Z,5.18
2024-04-24T12:04:25.884Z,4.90
2024-04-24T12:06:53.430Z,5.70
2024-04-24T12:09:20.763Z,5.55
2024-04-24T12:11:49.812Z,5.07
2024-04-24T12:14:18.357Z,5.88
2024-04-24T12:16:45.992Z,4.95
2024-04-24T12:19:13.660Z,6.30
2024-04-24T12:21:41.360Z,4.93
2024-04-24T12:24:08.803Z,5.13
2024-04-24T12:26:36.212Z,5.28
2024-04-24T12:29:03.623Z,5.53
2024-04-24T12:31:30.922Z,5.63
2024-04-24T12:33:58.406Z,4.75
2024-04-24T12:36:25.855Z,9.18
2024-04-24T12:38:54.030Z,6.82
2024-04-24T12:41:21.522Z,4.68
2024-04-24T12:43:48.863Z,5.40
2024-04-24T12:46:16.178Z,4.50
2024-04-24T12:48:43.651Z,5.18
2024-04-24T12:51:11.065Z,4.78
2024-04-24T12:53:38.478Z,4.95
2024-04-24T12:56:05.901Z,4.75
2024-04-24T12:58:33.210Z,5.32
2024-04-24T13:01:00.561Z,5.55
2024-04-24T13:03:27.985Z,5.68
2024-04-24T13:05:55.290Z,4.80
2024-04-24T13:08:22.587Z,4.75
2024-04-24T13:10:49.984Z,4.85
2024-04-24T13:13:17.428Z,4.57
2024-04-24T13:15:44.678Z,4.88
2024-04-24T13:18:18.059Z,4.18
2024-04-24T13:20:46.798Z,4.97
2024-04-24T13:23:14.074Z,4.47
2024-04-24T13:25:50.986Z,4.93
2024-04-24T13:28:18.277Z,5.18
2024-04-24T13:30:45.758Z,4.75
2024-04-24T13:33:13.132Z,4.28
2024-04-24T13:35:40.446Z,4.43
2024-04-24T13:38:07.754Z,4.80
2024-04-24T13:40:35.066Z,4.93
2024-04-24T13:43:02.375Z,4.55
2024-04-24T13:45:30.513Z,5.00
2024-04-24T13:47:58.016Z,5.03
2024-04-24T13:50:26.202Z,5.13
2024-04-24T13:52:54.478Z,6.10
2024-04-24T13:55:21.771Z,6.00
2024-04-24T13:57:49.148Z,5.90
2024-04-24T14:00:16.739Z,5.95
2024-04-24T14:02:44.128Z,5.97
2024-04-24T14:05:12.473Z,5.85
2024-04-24T14:07:39.813Z,6.18
2024-04-24T14:10:07.384Z,6.53
2024-04-24T14:12:34.731Z,6.53
2024-04-24T14:15:02.033Z,6.20
2024-04-24T14:17:31.065Z,6.45
2024-04-24T14:19:58.554Z,6.40
2024-04-24T14:22:25.989Z,6.13
2024-04-24T14:24:53.355Z,6.43
2024-04-24T14:27:20.659Z,6.43
2024-04-24T14:29:50.030Z,6.03
2024-04-24T14:32:17.372Z,6.13
2024-04-24T14:34:46.260Z,5.47
2024-04-24T14:37:13.596Z,5.15
2024-04-24T14:39:40.961Z,5.80
2024-04-24T14:42:08.334Z,5.75
2024-04-24T14:44:35.723Z,5.95
2024-04-24T14:47:03.246Z,7.03
2024-04-24T14:49:30.608Z,6.35
2024-04-24T14:51:58.251Z,6.55
2024-04-24T14:54:25.532Z,7.25
2024-04-24T14:56:52.811Z,7.90
2024-04-24T14:59:20.172Z,6.93
2024-04-24T15:01:49.842Z,7.53
2024-04-24T15:04:17.437Z,7.10
2024-04-24T15:07:00.025Z,7.07
2024-04-24T15:09:27.313Z,6.88
2024-04-24T15:11:54.746Z,7.28
2024-04-24T15:14:22.142Z,7.20
2024-04-24T15:16:50.238Z,6.32
2024-04-24T15:19:20.944Z,6.15
2024-04-24T15:21:48.306Z,6.18
2024-04-24T15:24:15.644Z,6.38
2024-04-24T15:26:42.963Z,5.25
2024-04-24T15:29:11.344Z,5.20
2024-04-24T15:31:38.836Z,5.00
2024-04-24T15:34:06.803Z,5.15
2024-04-24T15:36:34.155Z,5.63
2024-04-24T15:39:04.086Z,5.68
2024-04-24T15:41:31.427Z,5.28
2024-04-24T15:43:58.880Z,5.40
2024-04-24T15:46:26.232Z,4.97
2024-04-24T15:48:53.552Z,5.00
2024-04-24T15:51:20.944Z,4.50
2024-04-24T15:53:48.276Z,4.93
2024-04-24T15:56:18.499Z,5.13
2024-04-24T15:58:45.782Z,4.85
2024-04-24T16:01:17.176Z,5.15
2024-04-24T16:03:44.582Z,5.13
2024-04-24T16:06:11.900Z,5.43
2024-04-24T16:08:39.316Z,5.22
2024-04-24T16:11:06.786Z,5.05
2024-04-24T16:13:34.142Z,5.63
2024-04-24T16:16:01.481Z,4.82
2024-04-24T16:18:36.161Z,4.45
2024-04-24T16:21:10.383Z,5.82
2024-04-24T16:23:38.196Z,6.32
2024-04-24T16:26:05.904Z,6.10
2024-04-24T16:28:33.255Z,6.45
2024-04-24T16:31:00.565Z,6.85
2024-04-24T16:33:28.196Z,6.28
2024-04-24T16:35:55.559Z,6.57
2024-04-24T16:38:22.875Z,6.68
2024-04-24T16:40:50.182Z,7.25
2024-04-24T16:43:17.473Z,6.82
2024-04-24T16:45:45.511Z,6.80
2024-04-24T16:48:13.966Z,6.18
2024-04-24T16:50:41.696Z,6.22
2024-04-24T16:53:09.076Z,6.35
2024-04-24T16:55:36.410Z,6.40
2024-04-24T16:58:03.684Z,6.25
2024-04-24T17:00:31.027Z,6.55
2024-04-24T17:02:58.351Z,6.00
2024-04-24T17:05:25.791Z,6.68
2024-04-24T17:07:53.169Z,6.10
2024-04-24T17:10:20.600Z,6.38
2024-04-24T17:12:47.858Z,5.60
2024-04-24T17:15:15.231Z,6.18
2024-04-24T17:17:42.997Z,5.40
2024-04-24T17:20:10.536Z,6.30
2024-04-24T17:22:37.882Z,6.03
2024-04-24T17:25:05.605Z,7.43
2024-04-24T17:27:33.536Z,5.88
2024-04-24T17:30:00.855Z,6.43
2024-04-24T17:32:28.235Z,6.30
2024-04-24T17:34:55.674Z,5.90
2024-04-24T17:37:22.990Z,6.10
2024-04-24T17:39:50.295Z,6.03
2024-04-24T17:42:17.590Z,4.75
2024-04-24T17:44:44.844Z,4.88
2024-04-24T17:47:12.296Z,5.05
2024-04-24T17:49:39.648Z,4.65
2024-04-24T17:52:07.050Z,4.10
2024-04-24T17:54:36.890Z,4.05
2024-04-24T17:57:04.382Z,3.70
2024-04-24T17:59:32.271Z,3.47
2024-04-24T18:01:59.604Z,3.00
2024-04-24T18:04:27.020Z,3.22
2024-04-24T18:06:54.434Z,3.28
2024-04-24T18:09:21.794Z,3.10
2024-04-24T18:11:49.547Z,3.00
2024-04-24T18:14:17.024Z,3.17
2024-04-24T18:16:44.380Z,3.20
2024-04-24T18:19:11.684Z,3.50
2024-04-24T18:21:41.308Z,3.25
2024-04-24T18:24:08.909Z,3.38
2024-04-24T18:26:36.403Z,3.17
2024-04-24T18:29:03.752Z,4.22
2024-04-24T18:31:33.268Z,2.90
2024-04-24T18:34:00.988Z,3.72
2024-04-24T18:36:29.915Z,3.67
2024-04-24T18:38:57.202Z,3.00
2024-04-24T18:41:24.565Z,3.40
2024-04-24T18:43:53.697Z,3.40
2024-04-24T18:46:21.015Z,3.88
2024-04-24T18:48:48.408Z,3.95
2024-04-24T18:51:17.046Z,3.88
2024-04-24T18:53:44.672Z,3.85
2024-04-24T18:56:12.095Z,4.30
2024-04-24T18:58:39.435Z,3.85
2024-04-24T19:01:06.833Z,4.10
2024-04-24T19:03:34.224Z,3.60
2024-04-24T19:06:01.640Z,3.47
2024-04-24T19:08:29.062Z,3.75
2024-04-24T19:10:56.640Z,3.65
2024-04-24T19:13:24.937Z,5.10
2024-04-24T19:15:52.407Z,4.43
2024-04-24T19:18:21.513Z,4.45
2024-04-24T19:20:48.917Z,4.35
2024-04-24T19:23:16.262Z,4.55
2024-04-24T19:25:43.544Z,5.72
2024-04-24T19:28:10.887Z,5.82
2024-04-24T19:30:38.303Z,5.00
2024-04-24T19:33:05.776Z,5.60
2024-04-24T19:35:33.412Z,7.07
2024-04-24T19:38:00.824Z,6.50
2024-04-24T19:40:31.621Z,6.30
2024-04-24T19:43:01.174Z,6.47
2024-04-24T19:45:28.606Z,6.93
2024-04-24T19:47:56.313Z,6.35
2024-04-24T19:50:23.812Z,5.95
2024-04-24T19:52:51.157Z,5.75
2024-04-24T19:55:18.959Z,6.32
2024-04-24T19:57:46.316Z,6.65
2024-04-24T20:00:13.979Z,7.00
2024-04-24T20:02:41.355Z,7.07
2024-04-24T20:05:08.817Z,6.85
2024-04-24T20:07:36.699Z,7.10
2024-04-24T20:10:05.642Z,6.90
2024-04-24T20:12:32.996Z,7.20
2024-04-24T20:15:00.381Z,7.90
2024-04-24T20:17:28.055Z,7.22
2024-04-24T20:19:55.463Z,7.32
2024-04-24T20:22:22.763Z,7.57
2024-04-24T20:24:50.042Z,7.18
2024-04-24T20:27:17.324Z,7.78
2024-04-24T20:29:44.645Z,7.78
2024-04-24T20:32:12.056Z,7.75
2024-04-24T20:34:39.425Z,7.15
2024-04-24T20:37:06.893Z,6.82
2024-04-24T20:39:34.183Z,6.95
2024-04-24T20:42:01.500Z,6.75
2024-04-24T20:44:28.862Z,6.60
2024-04-24T20:46:56.253Z,6.05
2024-04-24T20:49:23.607Z,5.90
2024-04-24T20:51:52.026Z,6.53
2024-04-24T20:54:19.712Z,5.35
2024-04-24T20:56:46.997Z,5.65
2024-04-24T20:59:14.393Z,5.78
2024-04-24T21:01:41.767Z,5.00
2024-04-24T21:04:09.836Z,4.38
2024-04-24T21:06:37.634Z,4.93
2024-04-24T21:09:04.987Z,4.40
2024-04-24T21:11:32.402Z,4.57
2024-04-24T21:13:59.757Z,4.30
2024-04-24T21:16:27.097Z,4.25
2024-04-24T21:18:54.449Z,4.03
2024-04-24T21:21:21.841Z,4.40
2024-04-24T21:23:49.130Z,4.65
2024-04-24T21:26:16.860Z,4.57
2024-04-24T21:28:44.293Z,4.47
2024-04-24T21:31:11.732Z,5.32
2024-04-24T21:33:39.312Z,4.93
2024-04-24T21:36:06.750Z,4.68
2024-04-24T21:38:37.052Z,4.72
2024-04-24T21:41:20.203Z,4.75
2024-04-24T21:43:47.826Z,4.70
2024-04-24T21:46:15.669Z,4.55
2024-04-24T21:48:43.361Z,4.20
2024-04-24T21:51:11.707Z,4.50
2024-04-24T21:53:42.527Z,4.85
2024-04-24T21:56:09.921Z,4.18
2024-04-24T21:58:37.504Z,5.07
2024-04-24T22:01:04.899Z,4.97
2024-04-24T22:03:33.271Z,5.25
2024-04-24T22:06:03.967Z,4.60
2024-04-24T22:08:31.564Z,4.75
2024-04-24T22:10:58.941Z,4.90
2024-04-24T22:13:27.929Z,4.18
2024-04-24T22:15:55.215Z,4.70
2024-04-24T22:18:22.710Z,3.97
2024-04-24T22:20:50.123Z,3.80
2024-04-24T22:23:17.466Z,4.45
2024-04-24T22:25:45.106Z,4.05
2024-04-24T22:28:14.472Z,4.13
2024-04-24T22:30:42.152Z,4.13
2024-04-24T22:33:09.635Z,3.58
2024-04-24T22:35:37.189Z,3.35
2024-04-24T22:38:04.657Z,3.28
2024-04-24T22:40:32.026Z,3.15
2024-04-24T22:42:59.380Z,4.38
2024-04-24T22:45:26.662Z,3.80
2024-04-24T22:47:54.102Z,3.70
2024-04-24T22:50:21.560Z,3.30
2024-04-24T22:52:49.045Z,3.30
2024-04-24T22:55:16.455Z,3.38
2024-04-24T22:57:43.746Z,3.72
2024-04-24T23:00:15.768Z,3.65
2024-04-24T23:02:43.137Z,3.58
2024-04-24T23:05:10.684Z,3.47
2024-04-24T23:07:37.979Z,3.60
2024-04-24T23:10:05.381Z,3.10
2024-04-24T23:12:32.652Z,3.35
2024-04-24T23:14:59.904Z,3.17
2024-04-24T23:17:27.313Z,3.28
2024-04-24T23:19:54.641Z,3.30
2024-04-24T23:22:21.940Z,3.30
2024-04-24T23:24:49.228Z,3.17
2024-04-24T23:27:16.526Z,3.60
2024-04-24T23:29:44.227Z,3.78
2024-04-24T23:32:11.559Z,3.30
2024-04-24T23:34:38.906Z,3.00
2024-04-24T23:37:06.171Z,3.92
2024-04-24T23:39:33.458Z,3.42
2024-04-24T23:42:00.753Z,3.88
2024-04-24T23:44:28.075Z,3.50
2024-04-24T23:46:55.377Z,2.92
2024-04-24T23:49:22.678Z,3.95
2024-04-24T23:51:49.976Z,4.28
2024-04-24T23:54:17.236Z,3.97
2024-04-24T23:56:44.516Z,4.18
2024-04-24T23:59:14.245Z,4.10
